Etusivu
METAR-TAF:

METAR-TAF

Lentoasemat :

Hohhot, Kiina

Leveyspiiri: 40-49N, Pituuspiiri: 111-41E, korkeus merenpinnasta: 1065 m

Tämänhetkinen sää

Tämä raportti tehtiin 26 minuuttia sitten, kello 17.00 UTC
Tuuli 6 kn koillisesta
Lämpötila 5°C
Kosteus 41%
Ilmanpaine 1010 hPa
Näkyvyys 10 km tai enemmän
ei pilviä alle 1500 m:ssä eikä cumulonimbus-pilviä

METAR: ZBHH 231700Z 05003MPS CAVOK 05/M07 Q1010 NOSIG

Aika: 01:26 (17:26 UTC)

Sääennuste

Tämä raportti tehtiin 8 tuntia ja 16 minuuttia sitten, kello 09.10 UTC
Ennuste voimassa 23. päivästä klo 12 UTC - 24. päivään klo 12 UTC
Tuuli 8 kn lännestä/lounaasta
Näkyvyys 10 km tai enemmän
ei pilviä alle 1500 m:ssä eikä cumulonimbus-pilviä

TAF: ZBHH 230910Z 2312/2412 24004MPS CAVOK TX25/2407Z TN05/2322Z

Säähavainnot ja -ennusteet yli 4000 lentoasemalta (METAR- ja TAF-raportit).

Käytössä olevat sääasemat on merkitty karttaan keltaisilla ja punaisilla pisteillä.

Aseta hiiri pisteen päälle nähdäksesi sääaseman nimen.

Klikkaa sitten nähdäksesi säähavainnot ja -ennusteet.

Kartan vaihtaminen: klikkaa mustalla rastilla varustettuja vihreitä pisteitä, niin voit zoomata sisään; viivalla varustettua vihreää pistettä, niin voit zoomata ulos tai vihreitä nuolia, niin pääset viereisille kartoille.


METAR-TAF: